Flight Track Log - Related Links

Times and Time Zones

All times are in EDT time to prevent confusion due to time zone crossing. See the FLG3735 flight status page for this flight to view local times or setup timezone preferences in your user account.

Time Position Orientation Groundspeed Altitude Reporting Facility
EDT Latitude Longitude Course Direction KTS MPH feet Rate Location/Type
Sun 10:15:09 PM 42.2017 -83.3583 90° East 164 189 1,100  Level Cleveland Center
Sun 10:16:22 PM 42.1350 -83.3553 178° South 221 254 3,600 2,096 Climbing Cleveland Center
Sun 10:17:35 PM 42.0542 -83.3378 171° South 276 318 6,200 2,239 Climbing Cleveland Center
Sun 10:18:00 PM 42.3199 -82.7180 82° East  Level FlightAware Approximate
Sun 10:18:36 PM 42.0294 -83.2361 108° East 313 360 8,600  Level Cleveland Center
Sun 10:19:00 PM 42.3399 -82.5573 71° East  Level FlightAware Approximate
Sun 10:19:46 PM 42.0736 -83.1175 63° Northeast 321 369 10,800  Level Cleveland Center
Sun 10:20:00 PM 42.3667 -82.4029 90° East  Level FlightAware Approximate
Sun 10:20:46 PM 42.1197 -83.0158 59° Northeast 340 391 12,500  Level Cleveland Center
Sun 10:21:46 PM 42.1722 -82.9003 58° Northeast 352 405 14,200 1,700 Climbing Cleveland Center
Sun 10:22:46 PM 42.1833 -82.7575 84° East 359 413 15,900 1,450 Climbing Cleveland Center
Sun 10:23:46 PM 42.1861 -82.6064 89° East 372 428 17,100 1,050 Climbing Cleveland Center
Sun 10:24:46 PM 42.1886 -82.4522 89° East 398 458 18,000 950 Climbing Cleveland Center
Sun 10:25:46 PM 42.1892 -82.2869 90° East 415 478 19,000 1,000 Climbing Cleveland Center
Sun 10:26:46 PM 42.1917 -82.1050 89° East 428 493 20,000 1,000 Climbing Cleveland Center
Sun 10:27:46 PM 42.1939 -81.9369 89° East 445 512 21,000 1,050 Climbing Cleveland Center
Sun 10:28:46 PM 42.1978 -81.7658 88° East 445 512 22,100 900 Climbing Cleveland Center
Sun 10:29:46 PM 42.1972 -81.5950 90° East 452 520 22,800 650 Climbing Cleveland Center
Sun 10:30:46 PM 42.1986 -81.4183 89° East 462 532 23,400 550 Climbing Cleveland Center
Sun 10:31:46 PM 42.1997 -81.2419 89° East 464 534 23,900 450 Climbing Cleveland Center
Sun 10:32:46 PM 42.2006 -81.0819 90° East 470 541 24,300 500 Climbing Cleveland Center
Sun 10:33:46 PM 42.2014 -80.9028 90° East 475 547 24,900 550 Climbing Cleveland Center
Sun 10:34:46 PM 42.2017 -80.7178 90° East 483 556 25,400 500 Climbing Cleveland Center
Sun 10:35:46 PM 42.2017 -80.5328 90° East 483 556 25,900 500 Climbing Cleveland Center
Sun 10:36:46 PM 42.1994 -80.3478 91° East 483 556 26,400 500 Climbing Cleveland Center
Sun 10:37:46 PM 42.1967 -80.1458 91° East 488 562 26,900 300 Climbing Cleveland Center
Sun 10:38:46 PM 42.1981 -79.9581 89° East 499 574 27,000 50 Climbing Cleveland Center
Sun 10:39:46 PM 42.1967 -79.7619 90° East 499 574 27,000  Level Cleveland Center
Sun 10:40:46 PM 42.1931 -79.5658 91° East 505 581 27,000  Level Cleveland Center
Sun 10:41:46 PM 42.1892 -79.3725 91° East 516 594 27,000  Level Cleveland Center
Sun 10:42:46 PM 42.1889 -79.1708 90° East 522 601 27,000  Level Cleveland Center
Sun 10:43:46 PM 42.2094 -78.9742 82° East 522 601 27,000  Level Cleveland Center
Sun 10:44:46 PM 42.2336 -78.7800 80° East 527 606 27,000  Level Cleveland Center
Sun 10:45:46 PM 42.2575 -78.5858 80° East 527 606 27,000  Level Cleveland Center
Sun 10:46:46 PM 42.2831 -78.3856 80° East 527 606 27,000  Level Cleveland Center
Sun 10:47:46 PM 42.3061 -78.1883 81° East 527 606 27,000  Level Cleveland Center
Sun 10:48:46 PM 42.3292 -77.9964 81° East 527 606 27,000  Level Cleveland Center
Sun 10:50:42 PM 42.3686 -77.6400 81° East 532 612 27,000  Level Boston Center
Sun 10:51:41 PM 42.3922 -77.4422 81° East 532 612 27,000  Level Boston Center
Sun 10:52:42 PM 42.4183 -77.2247 81° East 537 618 27,000  Level Boston Center
Sun 10:53:42 PM 42.4389 -77.0294 82° East 537 618 27,000  Level Boston Center
Sun 10:54:42 PM 42.4614 -76.8311 81° East 537 618 27,000  Level Boston Center
Sun 10:55:40 PM 42.4814 -76.6353 82° East 532 612 27,000  Level Boston Center
Sun 10:56:40 PM 42.5031 -76.4369 82° East 532 612 27,000  Level Boston Center
Sun 10:57:41 PM 42.5242 -76.2436 82° East 532 612 27,000 -99 Level Boston Center
Sun 10:58:41 PM 42.5428 -76.0617 82° East 538 619 26,800 -1,050 Descending Boston Center
Sun 10:59:41 PM 42.5614 -75.8681 83° East 525 604 24,900 -1,916 Descending Boston Center
Sun 11:00:40 PM 42.5794 -75.6772 83° East 515 593 23,000 -1,950 Descending Boston Center
Sun 11:01:41 PM 42.5992 -75.4922 82° East 515 593 21,000 -1,884 Descending Boston Center
Sun 11:02:41 PM 42.6164 -75.3122 83° East 492 566 19,200 -1,800 Descending Boston Center
Sun 11:03:41 PM 42.6308 -75.1408 83° East 477 549 17,400 -1,934 Descending Boston Center
Sun 11:04:42 PM 42.6478 -74.9525 83° East 464 534 15,300 -1,736 Descending Boston Center
Sun 11:05:42 PM 42.6617 -74.7864 83° East 452 520 13,900 -1,424 Descending Boston Center
Sun 11:06:40 PM 42.6750 -74.6400 83° East 442 509 12,500 -1,618 Descending Boston Center
Sun 11:07:11 PM 42.6872 -74.5417 80° East 430 495 11,500 -1,548 Descending Boston Center
Sun 11:07:42 PM 42.6928 -74.4656 84° East 430 495 10,900 -1,180 Descending Boston Center
Sun 11:08:12 PM 42.6983 -74.4008 83° East 362 417 10,300 -1,133 Descending Boston Center
Sun 11:09:12 PM 42.7022 -74.2822 87° East 295 339 9,200 -1,333 Descending Boston Center
Sun 11:09:42 PM 42.6906 -74.2281 106° East 308 354 8,300 -1,900 Descending Boston Center
Sun 11:10:12 PM 42.6811 -74.1742 103° East 287 330 7,300 -1,672 Descending Boston Center
Sun 11:10:43 PM 42.6714 -74.1317 107° East 293 337 6,600 -1,869 Descending Boston Center
Sun 11:11:13 PM 42.6597 -74.0692 104° East 296 341 5,400 -2,118 Descending Boston Center
Sun 11:12:08 PM 42.6381 -73.9697 106° East 288 331 3,600 -1,586 Descending Boston Center
Sun 11:12:40 PM 42.6303 -73.9272 104° East 283 326 3,100 -923 Descending Boston Center
Sun 11:13:52 PM 42.6108 -73.8253 104° East 262 302 2,000 -720 Descending Boston Center
Sun 11:15:10 PM 42.6839 -73.8042 12° North 168 193 1,300 -613 Descending Boston Center
Sun 11:16:09 PM 42.7236 -73.8081 356° North 134 154 600 -712 Descending Boston Center

Login

Don't have an account? Register now (free) for customized features, flight alerts, and more!